createdAt,value
2023-06-07T00:00:29.050Z,453.00
2023-06-07T00:01:29.108Z,454.00
2023-06-07T00:02:42.174Z,453.00
2023-06-07T00:03:30.289Z,450.00
2023-06-07T00:04:29.278Z,448.00
2023-06-07T00:05:29.126Z,448.00
2023-06-07T00:06:29.139Z,449.00
2023-06-07T00:07:29.110Z,448.00
2023-06-07T00:08:29.121Z,446.00
2023-06-07T00:09:29.248Z,448.00
2023-06-07T00:10:29.112Z,447.00
2023-06-07T00:11:29.104Z,449.00
2023-06-07T00:12:29.111Z,452.00
2023-06-07T00:13:29.159Z,453.00
2023-06-07T00:14:29.212Z,452.00
2023-06-07T00:15:29.243Z,452.00
2023-06-07T00:16:29.284Z,454.00
2023-06-07T00:17:29.489Z,454.00
2023-06-07T00:18:29.585Z,455.00
2023-06-07T00:19:29.431Z,454.00
2023-06-07T00:20:29.470Z,454.00
2023-06-07T00:21:29.473Z,453.00
2023-06-07T00:22:29.497Z,450.00
2023-06-07T00:23:29.629Z,448.00
2023-06-07T00:24:29.597Z,449.00
2023-06-07T00:25:29.610Z,451.00
2023-06-07T00:26:29.631Z,451.00
2023-06-07T00:27:29.651Z,451.00
2023-06-07T00:28:29.941Z,449.00
2023-06-07T00:29:29.685Z,451.00
2023-06-07T00:30:29.713Z,450.00
2023-06-07T00:31:29.853Z,452.00
2023-06-07T00:32:29.869Z,452.00
2023-06-07T00:33:29.842Z,453.00
2023-06-07T00:34:29.878Z,455.00
2023-06-07T00:35:29.911Z,453.00
2023-06-07T00:36:29.951Z,457.00
2023-06-07T00:37:29.968Z,458.00
2023-06-07T00:38:29.989Z,458.00
2023-06-07T00:39:30.005Z,460.00
2023-06-07T00:40:30.029Z,462.00
2023-06-07T00:41:30.047Z,462.00
2023-06-07T00:42:30.063Z,461.00
2023-06-07T00:43:30.088Z,462.00
2023-06-07T00:44:30.108Z,462.00
2023-06-07T00:45:30.129Z,462.00
2023-06-07T00:46:30.166Z,466.00
2023-06-07T00:47:30.202Z,465.00
2023-06-07T00:48:30.257Z,466.00
2023-06-07T00:49:30.160Z,465.00
2023-06-07T00:50:30.169Z,466.00
2023-06-07T00:51:30.189Z,467.00
2023-06-07T00:52:30.201Z,469.00
2023-06-07T00:53:30.248Z,468.00
2023-06-07T00:54:30.271Z,467.00
2023-06-07T00:55:30.281Z,464.00
2023-06-07T00:56:30.288Z,462.00
2023-06-07T00:57:30.316Z,462.00
2023-06-07T00:58:30.338Z,464.00
2023-06-07T00:59:30.358Z,465.00
2023-06-07T01:00:30.351Z,465.00
2023-06-07T01:01:30.520Z,463.00
2023-06-07T01:02:30.473Z,463.00
2023-06-07T01:03:30.499Z,464.00
2023-06-07T01:04:30.432Z,464.00
2023-06-07T01:05:30.434Z,463.00
2023-06-07T01:06:30.474Z,463.00
2023-06-07T01:07:30.467Z,463.00
2023-06-07T01:08:30.488Z,462.00
2023-06-07T01:09:30.520Z,462.00
2023-06-07T01:10:30.509Z,460.00
2023-06-07T01:11:30.499Z,459.00
2023-06-07T01:12:30.524Z,457.00
2023-06-07T01:13:30.517Z,457.00
2023-06-07T01:14:30.523Z,458.00
2023-06-07T01:15:30.544Z,459.00
2023-06-07T01:16:30.591Z,460.00
2023-06-07T01:17:30.602Z,459.00
2023-06-07T01:18:30.599Z,458.00
2023-06-07T01:19:30.625Z,457.00
2023-06-07T01:20:30.632Z,453.00
2023-06-07T01:21:30.636Z,454.00
2023-06-07T01:22:30.649Z,453.00
2023-06-07T01:23:30.637Z,456.00
2023-06-07T01:24:30.645Z,457.00
2023-06-07T01:25:30.637Z,455.00
2023-06-07T01:26:30.642Z,456.00
2023-06-07T01:27:30.644Z,456.00
2023-06-07T01:28:30.626Z,458.00
2023-06-07T01:29:30.638Z,458.00
2023-06-07T01:30:30.691Z,458.00
2023-06-07T01:31:30.647Z,460.00
2023-06-07T01:32:30.658Z,461.00
2023-06-07T01:33:30.639Z,460.00
2023-06-07T01:34:30.633Z,460.00
2023-06-07T01:35:30.651Z,459.00
2023-06-07T01:36:30.642Z,457.00
2023-06-07T01:37:30.653Z,456.00
2023-06-07T01:38:30.663Z,456.00
2023-06-07T01:39:30.645Z,454.00
2023-06-07T01:40:30.657Z,452.00
2023-06-07T01:41:30.660Z,454.00
2023-06-07T01:42:30.675Z,454.00
2023-06-07T01:43:30.679Z,455.00
2023-06-07T01:44:30.663Z,453.00
2023-06-07T01:45:30.723Z,454.00
2023-06-07T01:46:30.722Z,455.00
2023-06-07T01:47:30.697Z,458.00
2023-06-07T01:48:30.692Z,459.00
2023-06-07T01:49:30.692Z,460.00
2023-06-07T01:50:30.679Z,461.00
2023-06-07T01:51:30.693Z,464.00
2023-06-07T01:52:30.671Z,465.00
2023-06-07T01:53:30.692Z,467.00
2023-06-07T01:54:30.703Z,465.00
2023-06-07T01:55:30.692Z,465.00
2023-06-07T01:56:30.703Z,464.00
2023-06-07T01:57:30.728Z,462.00
2023-06-07T01:58:30.672Z,463.00
2023-06-07T01:59:30.687Z,464.00
2023-06-07T02:00:30.684Z,465.00
2023-06-07T02:01:30.715Z,467.00
2023-06-07T02:02:30.750Z,468.00
2023-06-07T02:03:30.688Z,465.00
2023-06-07T02:04:30.687Z,466.00
2023-06-07T02:05:30.705Z,464.00
2023-06-07T02:06:30.681Z,463.00
2023-06-07T02:07:30.681Z,463.00
2023-06-07T02:08:30.694Z,463.00
2023-06-07T02:09:30.677Z,464.00
2023-06-07T02:10:30.672Z,464.00
2023-06-07T02:11:30.668Z,460.00
2023-06-07T02:12:30.670Z,460.00
2023-06-07T02:13:30.695Z,464.00
2023-06-07T02:14:30.676Z,462.00
2023-06-07T02:15:30.699Z,463.00
2023-06-07T02:16:30.682Z,463.00
2023-06-07T02:17:30.858Z,462.00
2023-06-07T02:18:30.700Z,460.00
2023-06-07T02:19:30.691Z,458.00
2023-06-07T02:20:30.716Z,461.00
2023-06-07T02:21:30.704Z,462.00
2023-06-07T02:22:30.729Z,464.00
2023-06-07T02:23:30.713Z,466.00
2023-06-07T02:24:30.703Z,467.00
2023-06-07T02:25:30.693Z,467.00
2023-06-07T02:26:30.720Z,464.00
2023-06-07T02:27:30.696Z,463.00
2023-06-07T02:28:30.722Z,464.00
2023-06-07T02:29:30.700Z,464.00
2023-06-07T02:30:30.719Z,466.00
2023-06-07T02:31:30.744Z,468.00
2023-06-07T02:32:30.723Z,465.00
2023-06-07T02:33:30.721Z,464.00
2023-06-07T02:34:30.722Z,464.00
2023-06-07T02:35:30.778Z,464.00
2023-06-07T02:36:30.734Z,463.00
2023-06-07T02:37:30.735Z,464.00
2023-06-07T02:38:30.762Z,466.00
2023-06-07T02:39:30.753Z,467.00
2023-06-07T02:40:30.785Z,469.00
2023-06-07T02:41:30.777Z,468.00
2023-06-07T02:42:30.770Z,466.00
2023-06-07T02:43:30.786Z,465.00
2023-06-07T02:44:30.777Z,464.00
2023-06-07T02:45:30.787Z,463.00
2023-06-07T02:46:30.808Z,465.00
2023-06-07T02:47:30.806Z,466.00
2023-06-07T02:48:30.824Z,466.00
2023-06-07T02:49:30.823Z,466.00
2023-06-07T02:50:30.854Z,469.00
2023-06-07T02:51:30.859Z,469.00
2023-06-07T02:52:30.848Z,470.00
2023-06-07T02:53:30.841Z,470.00
2023-06-07T02:54:30.871Z,470.00
2023-06-07T02:55:30.882Z,471.00
2023-06-07T02:56:30.887Z,471.00
2023-06-07T02:57:30.914Z,469.00
2023-06-07T02:58:30.896Z,468.00
2023-06-07T02:59:30.908Z,468.00
2023-06-07T03:00:30.920Z,469.00
2023-06-07T03:01:30.974Z,471.00
2023-06-07T03:02:31.068Z,471.00
2023-06-07T03:03:31.073Z,473.00
2023-06-07T03:04:30.966Z,474.00
2023-06-07T03:05:30.970Z,475.00
2023-06-07T03:06:31.001Z,478.00
2023-06-07T03:07:30.990Z,479.00
2023-06-07T03:08:31.006Z,480.00
2023-06-07T03:09:31.008Z,481.00
2023-06-07T03:10:31.033Z,480.00
2023-06-07T03:11:31.016Z,478.00
2023-06-07T03:12:31.035Z,482.00
2023-06-07T03:13:31.059Z,484.00
2023-06-07T03:14:31.070Z,484.00
2023-06-07T03:15:31.060Z,483.00
2023-06-07T03:16:31.178Z,483.00
2023-06-07T03:17:31.117Z,481.00
2023-06-07T03:18:31.074Z,480.00
2023-06-07T03:19:31.123Z,480.00
2023-06-07T03:20:31.152Z,479.00
2023-06-07T03:21:31.117Z,480.00
2023-06-07T03:22:31.135Z,482.00
2023-06-07T03:23:31.214Z,481.00
2023-06-07T03:24:31.148Z,483.00
2023-06-07T03:25:31.277Z,482.00
2023-06-07T03:26:31.184Z,481.00
2023-06-07T03:27:31.201Z,484.00
2023-06-07T03:28:31.194Z,482.00
2023-06-07T03:29:31.220Z,484.00
2023-06-07T03:30:31.240Z,485.00
2023-06-07T03:31:31.272Z,485.00
2023-06-07T03:32:31.258Z,485.00
2023-06-07T03:33:31.255Z,484.00
2023-06-07T03:34:31.255Z,483.00
2023-06-07T03:35:31.282Z,486.00
2023-06-07T03:36:31.303Z,487.00
2023-06-07T03:37:31.312Z,486.00
2023-06-07T03:38:31.320Z,486.00
2023-06-07T03:39:31.314Z,485.00
2023-06-07T03:40:31.348Z,484.00
2023-06-07T03:41:31.358Z,484.00
2023-06-07T03:42:31.368Z,485.00
2023-06-07T03:43:31.362Z,485.00
2023-06-07T03:44:31.404Z,483.00
2023-06-07T03:45:31.414Z,481.00
2023-06-07T03:46:31.429Z,482.00
2023-06-07T03:47:31.465Z,479.00
2023-06-07T03:48:31.553Z,480.00
2023-06-07T03:49:31.445Z,478.00
2023-06-07T03:50:31.467Z,478.00
2023-06-07T03:51:31.455Z,479.00
2023-06-07T03:52:31.463Z,477.00
2023-06-07T03:53:31.502Z,476.00
2023-06-07T03:54:31.484Z,476.00
2023-06-07T03:55:31.524Z,479.00
2023-06-07T03:56:31.520Z,478.00
2023-06-07T03:57:31.551Z,477.00
2023-06-07T03:58:31.532Z,479.00
2023-06-07T03:59:31.577Z,479.00
2023-06-07T04:00:31.567Z,479.00
2023-06-07T04:01:31.597Z,478.00
2023-06-07T04:02:31.653Z,477.00
2023-06-07T04:03:31.672Z,478.00
2023-06-07T04:04:31.692Z,478.00
2023-06-07T04:05:31.636Z,479.00
2023-06-07T04:06:31.667Z,480.00
2023-06-07T04:07:31.644Z,479.00
2023-06-07T04:08:31.651Z,476.00
2023-06-07T04:09:31.685Z,476.00
2023-06-07T04:10:31.690Z,478.00
2023-06-07T04:11:31.701Z,477.00
2023-06-07T04:12:31.713Z,476.00
2023-06-07T04:13:31.723Z,474.00
2023-06-07T04:14:31.735Z,472.00
2023-06-07T04:15:31.737Z,473.00
2023-06-07T04:16:31.788Z,473.00
2023-06-07T04:17:31.862Z,472.00
2023-06-07T04:18:31.791Z,471.00
2023-06-07T04:19:31.784Z,472.00
2023-06-07T04:20:31.802Z,472.00
2023-06-07T04:21:31.813Z,474.00
2023-06-07T04:22:31.856Z,473.00
2023-06-07T04:23:31.859Z,472.00
2023-06-07T04:24:31.842Z,472.00
2023-06-07T04:25:31.831Z,471.00
2023-06-07T04:26:31.848Z,472.00
2023-06-07T04:27:31.870Z,472.00
2023-06-07T04:28:31.919Z,473.00
2023-06-07T04:29:31.882Z,473.00
2023-06-07T04:30:31.900Z,473.00
2023-06-07T04:31:31.943Z,474.00
2023-06-07T04:32:31.927Z,474.00
2023-06-07T04:33:31.890Z,474.00
2023-06-07T04:34:31.906Z,475.00
2023-06-07T04:35:31.949Z,476.00
2023-06-07T04:36:31.920Z,476.00
2023-06-07T04:37:32.922Z,474.00
2023-06-07T04:38:33.354Z,473.00
2023-06-07T04:39:31.938Z,471.00
2023-06-07T04:40:31.945Z,473.00
2023-06-07T04:41:32.046Z,471.00
2023-06-07T04:42:31.940Z,472.00
2023-06-07T04:43:31.943Z,472.00
2023-06-07T04:44:31.963Z,473.00
2023-06-07T04:45:32.002Z,475.00
2023-06-07T04:46:32.181Z,475.00
2023-06-07T04:47:32.014Z,475.00
2023-06-07T04:48:31.982Z,477.00
2023-06-07T04:49:31.986Z,476.00
2023-06-07T04:50:31.982Z,475.00
2023-06-07T04:51:32.009Z,474.00
2023-06-07T04:52:31.997Z,475.00
2023-06-07T04:53:31.978Z,477.00
2023-06-07T04:54:31.980Z,476.00
2023-06-07T04:55:31.982Z,477.00
2023-06-07T04:56:31.982Z,475.00
2023-06-07T04:57:31.996Z,477.00
2023-06-07T04:58:31.971Z,475.00
2023-06-07T04:59:31.993Z,474.00
2023-06-07T05:00:32.003Z,476.00
2023-06-07T05:01:32.006Z,478.00
2023-06-07T05:02:32.024Z,478.00
2023-06-07T05:03:32.006Z,480.00
2023-06-07T05:04:32.035Z,483.00
2023-06-07T05:05:32.067Z,483.00
2023-06-07T05:06:32.049Z,484.00
2023-06-07T05:07:32.043Z,482.00
2023-06-07T05:08:32.081Z,478.00
2023-06-07T05:09:32.165Z,477.00
2023-06-07T05:10:32.125Z,478.00
2023-06-07T05:11:32.138Z,481.00
2023-06-07T05:12:32.143Z,483.00
2023-06-07T05:13:32.198Z,482.00
2023-06-07T05:14:32.213Z,480.00
2023-06-07T05:15:32.225Z,480.00
2023-06-07T05:16:32.326Z,482.00
2023-06-07T05:17:32.279Z,482.00
2023-06-07T05:18:32.255Z,481.00
2023-06-07T05:19:32.309Z,480.00
2023-06-07T05:20:32.350Z,481.00
2023-06-07T05:21:32.427Z,480.00
2023-06-07T05:22:32.462Z,480.00
2023-06-07T05:23:32.478Z,482.00
2023-06-07T05:24:32.532Z,482.00
2023-06-07T05:25:32.638Z,483.00
2023-06-07T05:26:33.036Z,484.00
2023-06-07T05:27:32.693Z,485.00
2023-06-07T05:28:32.750Z,488.00
2023-06-07T05:29:32.814Z,509.00
2023-06-07T05:30:32.851Z,522.00
2023-06-07T05:31:32.978Z,531.00
2023-06-07T05:32:33.010Z,631.00
2023-06-07T05:33:33.032Z,712.00
2023-06-07T05:34:33.097Z,687.00
2023-06-07T05:35:33.167Z,687.00
2023-06-07T05:36:33.201Z,735.00
2023-06-07T05:37:33.239Z,733.00
2023-06-07T05:38:33.382Z,742.00
2023-06-07T05:39:33.326Z,762.00
2023-06-07T05:40:33.374Z,771.00
2023-06-07T05:41:33.511Z,784.00
2023-06-07T05:42:33.451Z,799.00
2023-06-07T05:43:33.483Z,804.00
2023-06-07T05:44:33.497Z,808.00
2023-06-07T05:45:33.527Z,818.00
2023-06-07T05:46:33.580Z,823.00
2023-06-07T05:47:33.609Z,828.00
2023-06-07T05:48:33.617Z,838.00
2023-06-07T05:49:33.614Z,848.00
2023-06-07T05:50:33.654Z,855.00
2023-06-07T05:51:33.699Z,864.00
2023-06-07T05:52:33.674Z,872.00
2023-06-07T05:53:33.694Z,879.00
2023-06-07T05:54:33.715Z,887.00
2023-06-07T05:55:33.755Z,893.00
2023-06-07T05:56:33.746Z,898.00
2023-06-07T05:57:33.783Z,902.00
2023-06-07T05:58:33.757Z,907.00
2023-06-07T05:59:33.775Z,912.00
2023-06-07T06:00:33.805Z,919.00
2023-06-07T06:01:33.766Z,923.00
2023-06-07T06:02:33.930Z,924.00
2023-06-07T06:03:33.832Z,926.00
2023-06-07T06:04:33.901Z,926.00
2023-06-07T06:05:33.795Z,926.00
2023-06-07T06:06:33.807Z,926.00
2023-06-07T06:07:33.802Z,925.00
2023-06-07T06:08:33.780Z,923.00
2023-06-07T06:09:33.791Z,922.00
2023-06-07T06:10:35.798Z,919.00
2023-06-07T06:11:33.909Z,917.00
2023-06-07T06:12:33.948Z,917.00
2023-06-07T06:13:33.937Z,915.00
2023-06-07T06:14:34.001Z,914.00
2023-06-07T06:15:34.000Z,912.00
2023-06-07T06:16:34.052Z,910.00
2023-06-07T06:17:34.078Z,911.00
2023-06-07T06:18:34.138Z,913.00
2023-06-07T06:19:34.202Z,915.00
2023-06-07T06:20:34.251Z,918.00
2023-06-07T06:21:34.474Z,920.00
2023-06-07T06:22:34.376Z,920.00
2023-06-07T06:23:34.446Z,923.00
2023-06-07T06:24:34.493Z,927.00
2023-06-07T06:25:34.547Z,929.00
2023-06-07T06:26:34.988Z,932.00
2023-06-07T06:27:34.661Z,936.00
2023-06-07T06:28:34.711Z,937.00
2023-06-07T06:29:34.737Z,940.00
2023-06-07T06:30:34.792Z,939.00
2023-06-07T06:31:35.101Z,925.00
2023-06-07T06:32:34.896Z,919.00
2023-06-07T06:33:34.939Z,908.00
2023-06-07T06:34:34.981Z,894.00
2023-06-07T06:35:35.052Z,776.00
2023-06-07T06:36:35.469Z,769.00
2023-06-07T06:37:35.169Z,753.00
2023-06-07T06:38:35.200Z,788.00
2023-06-07T06:39:35.238Z,793.00
2023-06-07T06:40:35.305Z,785.00
2023-06-07T06:41:35.400Z,791.00
2023-06-07T06:42:35.437Z,798.00
2023-06-07T06:43:35.453Z,803.00
2023-06-07T06:44:35.522Z,808.00
2023-06-07T06:45:35.544Z,817.00
2023-06-07T06:46:36.064Z,824.00
2023-06-07T06:47:35.674Z,827.00
2023-06-07T06:48:35.721Z,834.00
2023-06-07T06:49:35.846Z,843.00
2023-06-07T06:50:36.008Z,856.00
2023-06-07T06:51:35.988Z,862.00
2023-06-07T06:52:35.815Z,875.00
2023-06-07T06:53:35.843Z,893.00
2023-06-07T06:54:35.851Z,906.00
2023-06-07T06:55:35.876Z,913.00
2023-06-07T06:56:35.988Z,918.00
2023-06-07T06:57:35.952Z,927.00
2023-06-07T06:58:36.012Z,936.00
2023-06-07T06:59:35.946Z,941.00
2023-06-07T07:00:35.965Z,943.00
2023-06-07T07:01:36.531Z,944.00
2023-06-07T07:02:35.992Z,937.00
2023-06-07T07:03:36.043Z,943.00
2023-06-07T07:04:36.127Z,946.00
2023-06-07T07:05:36.011Z,959.00
2023-06-07T07:06:36.097Z,960.00
2023-06-07T07:07:36.024Z,964.00
2023-06-07T07:08:36.029Z,962.00
2023-06-07T07:09:36.009Z,959.00
2023-06-07T07:10:36.013Z,962.00
2023-06-07T07:11:36.050Z,967.00
2023-06-07T07:12:36.107Z,967.00
2023-06-07T07:13:36.172Z,967.00
2023-06-07T07:14:36.285Z,964.00
2023-06-07T07:15:36.257Z,959.00
2023-06-07T07:16:38.834Z,958.00
2023-06-07T07:17:36.304Z,962.00
2023-06-07T07:18:36.274Z,963.00
2023-06-07T07:19:36.275Z,963.00
2023-06-07T07:20:36.236Z,961.00
2023-06-07T07:21:36.600Z,959.00
2023-06-07T07:22:36.258Z,956.00
2023-06-07T07:23:36.325Z,956.00
2023-06-07T07:24:37.261Z,960.00
2023-06-07T07:25:36.235Z,771.00
2023-06-07T07:26:36.532Z,719.00
2023-06-07T07:27:36.201Z,701.00
2023-06-07T07:28:36.213Z,685.00
2023-06-07T07:29:36.191Z,674.00
2023-06-07T07:30:36.181Z,680.00
2023-06-07T07:31:36.512Z,685.00
2023-06-07T07:32:36.225Z,690.00
2023-06-07T07:33:36.155Z,648.00
2023-06-07T07:34:36.512Z,597.00
2023-06-07T07:35:36.499Z,582.00
2023-06-07T07:36:36.154Z,572.00
2023-06-07T07:37:36.148Z,566.00
2023-06-07T07:38:36.127Z,564.00
2023-06-07T07:39:36.122Z,563.00
2023-06-07T07:40:36.131Z,563.00
2023-06-07T07:41:36.180Z,559.00
2023-06-07T07:42:36.203Z,554.00
2023-06-07T07:43:38.099Z,550.00
2023-06-07T07:44:36.298Z,547.00
2023-06-07T07:45:36.523Z,540.00
2023-06-07T07:46:36.532Z,528.00
2023-06-07T07:47:36.474Z,523.00
2023-06-07T07:48:36.445Z,520.00
2023-06-07T07:49:36.738Z,523.00
2023-06-07T07:50:36.530Z,516.00
2023-06-07T07:51:36.566Z,509.00
2023-06-07T07:52:36.603Z,503.00
2023-06-07T07:53:36.654Z,497.00
2023-06-07T07:54:36.688Z,494.00
2023-06-07T07:55:36.724Z,506.00
2023-06-07T07:56:36.778Z,514.00
2023-06-07T07:57:36.799Z,521.00
2023-06-07T07:58:36.834Z,523.00
2023-06-07T07:59:36.896Z,525.00
2023-06-07T08:00:36.916Z,525.00
2023-06-07T08:01:37.019Z,528.00
2023-06-07T08:02:37.195Z,531.00
2023-06-07T08:03:37.362Z,532.00
2023-06-07T08:04:37.154Z,529.00
2023-06-07T08:05:37.164Z,528.00
2023-06-07T08:06:37.230Z,530.00
2023-06-07T08:07:37.285Z,528.00
2023-06-07T08:08:37.322Z,528.00
2023-06-07T08:09:37.430Z,527.00
2023-06-07T08:10:37.427Z,526.00
2023-06-07T08:11:37.500Z,523.00
2023-06-07T08:12:37.552Z,519.00
2023-06-07T08:13:37.595Z,506.00
2023-06-07T08:14:37.638Z,500.00
2023-06-07T08:15:37.678Z,499.00
2023-06-07T08:16:38.056Z,502.00
2023-06-07T08:17:37.767Z,508.00
2023-06-07T08:18:37.850Z,505.00
2023-06-07T08:19:37.858Z,499.00
2023-06-07T08:20:37.887Z,498.00
2023-06-07T08:21:38.046Z,494.00
2023-06-07T08:22:37.961Z,489.00
2023-06-07T08:23:38.121Z,483.00
2023-06-07T08:24:38.064Z,477.00
2023-06-07T08:25:38.086Z,472.00
2023-06-07T08:26:38.104Z,466.00
2023-06-07T08:27:38.157Z,461.00
2023-06-07T08:28:38.216Z,462.00
2023-06-07T08:29:38.261Z,462.00
2023-06-07T08:30:38.264Z,464.00
2023-06-07T08:31:38.330Z,464.00
2023-06-07T08:32:38.369Z,461.00
2023-06-07T08:33:38.359Z,458.00
2023-06-07T08:34:38.403Z,460.00
2023-06-07T08:35:38.445Z,508.00
2023-06-07T08:36:38.537Z,511.00
2023-06-07T08:37:38.515Z,501.00
2023-06-07T08:38:39.036Z,490.00
2023-06-07T08:39:38.598Z,503.00
2023-06-07T08:40:38.668Z,514.00
2023-06-07T08:41:39.043Z,525.00
2023-06-07T08:42:38.684Z,533.00
2023-06-07T08:43:38.755Z,570.00
2023-06-07T08:44:38.730Z,626.00
2023-06-07T08:45:40.578Z,630.00
2023-06-07T08:46:38.834Z,643.00
2023-06-07T08:47:38.756Z,670.00
2023-06-07T08:48:38.762Z,698.00
2023-06-07T08:49:38.753Z,720.00
2023-06-07T08:50:38.716Z,734.00
2023-06-07T08:51:38.710Z,748.00
2023-06-07T08:52:38.800Z,756.00
2023-06-07T08:53:39.069Z,757.00
2023-06-07T08:54:38.714Z,754.00
2023-06-07T08:55:38.722Z,759.00
2023-06-07T08:56:39.079Z,758.00
2023-06-07T08:57:38.678Z,756.00
2023-06-07T08:58:38.674Z,760.00
2023-06-07T08:59:38.736Z,767.00
2023-06-07T09:00:38.697Z,773.00
2023-06-07T09:01:39.051Z,778.00
2023-06-07T09:02:38.701Z,782.00
2023-06-07T09:03:38.665Z,789.00
2023-06-07T09:04:38.651Z,796.00
2023-06-07T09:05:38.624Z,801.00
2023-06-07T09:06:38.629Z,808.00
2023-06-07T09:07:38.612Z,816.00
2023-06-07T09:08:38.636Z,824.00
2023-06-07T09:09:38.614Z,833.00
2023-06-07T09:10:38.600Z,836.00
2023-06-07T09:11:38.570Z,840.00
2023-06-07T09:12:38.579Z,845.00
2023-06-07T09:13:38.610Z,851.00
2023-06-07T09:14:38.572Z,855.00
2023-06-07T09:15:38.548Z,863.00
2023-06-07T09:16:38.616Z,869.00
2023-06-07T09:17:38.706Z,882.00
2023-06-07T09:18:38.561Z,889.00
2023-06-07T09:19:38.533Z,897.00
2023-06-07T09:20:38.503Z,902.00
2023-06-07T09:21:38.522Z,909.00
2023-06-07T09:22:38.488Z,913.00
2023-06-07T09:23:38.558Z,919.00
2023-06-07T09:24:38.495Z,925.00
2023-06-07T09:25:38.491Z,930.00
2023-06-07T09:26:38.575Z,932.00
2023-06-07T09:27:38.542Z,928.00
2023-06-07T09:28:38.711Z,804.00
2023-06-07T09:29:38.687Z,775.00
2023-06-07T09:30:38.642Z,754.00
2023-06-07T09:31:39.313Z,710.00
2023-06-07T09:33:38.767Z,646.00
2023-06-07T09:34:38.792Z,650.00
2023-06-07T09:35:38.916Z,657.00
2023-06-07T09:36:38.878Z,660.00
2023-06-07T09:37:38.964Z,655.00
2023-06-07T09:38:39.002Z,652.00
2023-06-07T09:39:38.995Z,654.00
2023-06-07T09:40:39.015Z,669.00
2023-06-07T09:41:39.134Z,659.00
2023-06-07T09:42:39.101Z,657.00
2023-06-07T09:43:39.218Z,649.00
2023-06-07T09:44:39.207Z,639.00
2023-06-07T09:45:39.384Z,626.00
2023-06-07T09:46:39.304Z,620.00
2023-06-07T09:47:39.337Z,620.00
2023-06-07T09:48:39.547Z,624.00
2023-06-07T09:49:39.398Z,624.00
2023-06-07T09:50:39.432Z,628.00
2023-06-07T09:51:39.538Z,627.00
2023-06-07T09:52:39.525Z,630.00
2023-06-07T09:53:39.576Z,680.00
2023-06-07T09:54:39.584Z,647.00
2023-06-07T09:55:39.669Z,616.00
2023-06-07T09:56:39.607Z,620.00
2023-06-07T09:57:39.676Z,628.00
2023-06-07T09:58:39.721Z,629.00
2023-06-07T09:59:39.836Z,629.00
2023-06-07T10:00:39.783Z,632.00
2023-06-07T10:01:40.331Z,623.00
2023-06-07T10:02:39.849Z,614.00
2023-06-07T10:03:39.912Z,616.00
2023-06-07T10:04:39.968Z,619.00
2023-06-07T10:05:39.871Z,619.00
2023-06-07T10:06:39.927Z,621.00
2023-06-07T10:07:40.033Z,624.00
2023-06-07T10:08:39.963Z,623.00
2023-06-07T10:09:40.018Z,626.00
2023-06-07T10:10:40.036Z,624.00
2023-06-07T10:11:40.086Z,638.00
2023-06-07T10:12:40.157Z,629.00
2023-06-07T10:13:40.126Z,623.00
2023-06-07T10:14:40.139Z,621.00
2023-06-07T10:15:40.205Z,624.00
2023-06-07T10:16:40.617Z,617.00
2023-06-07T10:17:40.263Z,612.00
2023-06-07T10:18:40.257Z,609.00
2023-06-07T10:19:40.334Z,606.00
2023-06-07T10:20:40.328Z,604.00
2023-06-07T10:21:40.385Z,608.00
2023-06-07T10:22:40.386Z,603.00
2023-06-07T10:23:40.508Z,543.00
2023-06-07T10:24:40.434Z,516.00
2023-06-07T10:25:40.458Z,509.00
2023-06-07T10:26:40.603Z,509.00
2023-06-07T10:27:40.558Z,505.00
2023-06-07T10:28:40.616Z,501.00
2023-06-07T10:29:40.599Z,492.00
2023-06-07T10:30:40.626Z,485.00
2023-06-07T10:31:41.221Z,480.00
2023-06-07T10:32:40.740Z,476.00
2023-06-07T10:33:40.725Z,469.00
2023-06-07T10:34:40.744Z,466.00
2023-06-07T10:35:40.803Z,461.00
2023-06-07T10:36:40.828Z,458.00
2023-06-07T10:37:40.868Z,456.00
2023-06-07T10:38:40.933Z,454.00
2023-06-07T10:39:40.992Z,451.00
2023-06-07T10:40:41.025Z,452.00
2023-06-07T10:41:41.109Z,451.00
2023-06-07T10:42:41.147Z,450.00
2023-06-07T10:43:41.122Z,450.00
2023-06-07T10:44:41.157Z,449.00
2023-06-07T10:45:41.201Z,451.00
2023-06-07T10:46:41.309Z,448.00
2023-06-07T10:47:41.408Z,446.00
2023-06-07T10:48:41.313Z,445.00
2023-06-07T10:49:41.751Z,445.00
2023-06-07T10:50:41.410Z,445.00
2023-06-07T10:51:41.452Z,451.00
2023-06-07T10:52:41.518Z,450.00
2023-06-07T10:53:41.525Z,452.00
2023-06-07T10:54:41.574Z,450.00
2023-06-07T10:55:41.687Z,453.00
2023-06-07T10:56:41.673Z,455.00
2023-06-07T10:57:41.688Z,454.00
2023-06-07T10:58:41.769Z,452.00
2023-06-07T10:59:41.837Z,452.00
2023-06-07T11:00:41.833Z,451.00
2023-06-07T11:01:41.931Z,451.00
2023-06-07T11:02:42.034Z,450.00
2023-06-07T11:03:42.137Z,451.00
2023-06-07T11:04:42.473Z,453.00
2023-06-07T11:05:42.051Z,451.00
2023-06-07T11:06:42.080Z,452.00
2023-06-07T11:07:42.078Z,453.00
2023-06-07T11:08:42.139Z,455.00
2023-06-07T11:09:42.240Z,454.00
2023-06-07T11:10:42.185Z,454.00
2023-06-07T11:11:42.236Z,455.00
2023-06-07T11:12:42.629Z,456.00
2023-06-07T11:13:42.338Z,460.00
2023-06-07T11:14:42.359Z,473.00
2023-06-07T11:15:42.477Z,492.00
2023-06-07T11:16:42.527Z,503.00
2023-06-07T11:17:42.556Z,507.00
2023-06-07T11:18:42.571Z,512.00
2023-06-07T11:19:42.640Z,509.00
2023-06-07T11:20:42.710Z,509.00
2023-06-07T11:21:42.764Z,506.00
2023-06-07T11:22:42.796Z,503.00
2023-06-07T11:23:42.875Z,499.00
2023-06-07T11:24:45.840Z,498.00
2023-06-07T11:25:42.927Z,497.00
2023-06-07T11:26:42.912Z,496.00
2023-06-07T11:27:42.918Z,491.00
2023-06-07T11:28:42.903Z,489.00
2023-06-07T11:29:42.998Z,486.00
2023-06-07T11:30:42.889Z,481.00
2023-06-07T11:31:42.904Z,478.00
2023-06-07T11:32:42.893Z,477.00
2023-06-07T11:33:42.882Z,477.00
2023-06-07T11:34:42.860Z,473.00
2023-06-07T11:35:42.890Z,471.00
2023-06-07T11:36:42.865Z,471.00
2023-06-07T11:37:42.911Z,470.00
2023-06-07T11:38:42.895Z,470.00
2023-06-07T11:39:42.827Z,471.00
2023-06-07T11:40:42.814Z,469.00
2023-06-07T11:41:42.839Z,468.00
2023-06-07T11:42:42.813Z,464.00
2023-06-07T11:43:42.794Z,458.00
2023-06-07T11:44:42.820Z,455.00
2023-06-07T11:45:42.766Z,495.00
2023-06-07T11:46:42.864Z,472.00
2023-06-07T11:47:42.900Z,464.00
2023-06-07T11:48:42.863Z,461.00
2023-06-07T11:49:42.770Z,461.00
2023-06-07T11:50:42.732Z,462.00
2023-06-07T11:51:42.776Z,463.00
2023-06-07T11:52:42.752Z,463.00
2023-06-07T11:53:42.750Z,463.00
2023-06-07T11:54:42.738Z,463.00
2023-06-07T11:55:42.711Z,462.00
2023-06-07T11:56:42.702Z,462.00
2023-06-07T11:57:42.693Z,462.00
2023-06-07T11:58:42.677Z,463.00
2023-06-07T11:59:42.681Z,467.00
2023-06-07T12:00:42.746Z,466.00
2023-06-07T12:01:42.674Z,467.00
2023-06-07T12:02:42.724Z,468.00
2023-06-07T12:03:45.221Z,470.00
2023-06-07T12:04:42.726Z,468.00
2023-06-07T12:05:42.708Z,470.00
2023-06-07T12:06:42.704Z,467.00
2023-06-07T12:07:42.683Z,464.00
2023-06-07T12:08:42.690Z,463.00
2023-06-07T12:09:42.668Z,460.00
2023-06-07T12:10:42.671Z,461.00
2023-06-07T12:11:42.661Z,459.00
2023-06-07T12:12:42.651Z,459.00
2023-06-07T12:13:42.672Z,460.00
2023-06-07T12:14:42.628Z,461.00
2023-06-07T12:15:42.727Z,461.00
2023-06-07T12:16:42.644Z,463.00
2023-06-07T12:17:42.669Z,461.00
2023-06-07T12:18:42.607Z,462.00
2023-06-07T12:19:42.597Z,463.00
2023-06-07T12:20:42.655Z,463.00
2023-06-07T12:21:42.601Z,462.00
2023-06-07T12:22:42.580Z,462.00
2023-06-07T12:23:42.583Z,460.00
2023-06-07T12:24:42.568Z,460.00
2023-06-07T12:25:42.746Z,460.00
2023-06-07T12:26:42.575Z,461.00
2023-06-07T12:27:42.550Z,460.00
2023-06-07T12:28:42.537Z,459.00
2023-06-07T12:29:42.522Z,457.00